Virtual Norwegian is not affiliated with Norwegian Air Shuttle in any way.
If you are looking for the real "Norwegian", or you wish to book Norwegian flights, please visit Norwegian.com


We use cookies to ensure you get the best experience on our website.   ACCEPT

EFOU - OUL - Oulu (Oulu)

General Info Alternate Airport
ICAO: EFOU Elevation: 47 ft ICAO: EFRO
IATA: OUL Country: Finland IATA: RVN
City: Oulu Charts: Log in to view charts City: Rovaniemi
Name: Oulu Hub: No Name Rovaniemi
General Info
ICAO: EFOU
IATA: OUL
City: Oulu
Name: Oulu
Elevation: 47 ft
Country: Finland
Charts: Log in to view charts
Hub: No
 
Alternate Airport
ICAO: EFRO
IATA: RVN
City: Rovaniemi
Name: Rovaniemi

Weather
261720Z AUTO 33008KT 300V360 CAVOK 14/08 Q0989
Weather
261720Z AUTO 33008KT 300V360 CAVOK 14/08 Q0989

Runway Info
12
Length ILS/LOC Course
2501 m 109.50 112
30
Length ILS/LOC Heading
2501 m N/A 301

NOTAMs
NOTAMs currently unavailable.
NOTAMs
NOTAMs currently unavailable

Route map
Airport
Airport (hub)